Time;durP1;ratioP1;P1;durP2;ratioP2;P2;SDS_P1;SDS_P2;PMS_P1;PMS_P2;Temp;Humidity;BMP_temperature;BMP_pressure;BME280_temperature;BME280_humidity;BME280_pressure;Samples;Min_cycle;Max_cycle;Signal;HPM_P1;HPM_P2
2023/06/13 00:01:16;;;;;;;10.77;4.50;;;16.90;23.00;;;;;;5985558;24;20428;-67
2023/06/13 00:03:47;;;;;;;7.97;4.80;;;17.00;21.40;;;;;;5984896;24;20427;-67
2023/06/13 00:06:17;;;;;;;11.43;5.13;;;17.10;21.20;;;;;;5985692;24;20407;-67
2023/06/13 00:08:44;;;;;;;9.00;5.40;;;17.10;19.70;;;;;;5984877;24;20423;-68
2023/06/13 00:11:11;;;;;;;12.30;4.87;;;17.10;19.20;;;;;;5985371;24;20419;-67
2023/06/13 00:13:39;;;;;;;13.37;5.07;;;17.00;18.00;;;;;;5982896;24;20451;-67
2023/06/13 00:16:07;;;;;;;12.33;5.27;;;17.00;19.70;;;;;;5983809;24;20448;-67
2023/06/13 00:18:35;;;;;;;13.43;5.30;;;16.90;19.80;;;;;;5983455;24;21011;-67
2023/06/13 00:21:03;;;;;;;9.43;5.10;;;16.80;19.60;;;;;;5983739;24;20456;-67
2023/06/13 00:23:31;;;;;;;8.50;5.23;;;16.80;19.40;;;;;;5983450;24;20741;-67
2023/06/13 00:25:58;;;;;;;8.80;5.10;;;16.80;19.10;;;;;;5983660;24;20491;-67
2023/06/13 00:28:25;;;;;;;9.53;5.77;;;16.60;19.80;;;;;;5983790;24;20502;-67
2023/06/13 00:30:52;;;;;;;12.00;4.70;;;16.50;20.70;;;;;;5983477;24;20443;-68
2023/06/13 00:33:20;;;;;;;12.50;4.77;;;16.40;22.20;;;;;;5983573;24;20423;-67
2023/06/13 00:35:47;;;;;;;10.13;4.80;;;16.20;21.90;;;;;;5983896;24;20503;-67
2023/06/13 00:38:14;;;;;;;9.80;6.00;;;16.20;21.80;;;;;;5983359;24;20506;-67
2023/06/13 00:40:42;;;;;;;9.30;4.50;;;16.10;22.70;;;;;;5983850;24;20807;-67
2023/06/13 00:43:12;;;;;;;10.10;5.10;;;16.00;26.90;;;;;;5983109;24;20420;-67
2023/06/13 00:45:38;;;;;;;9.33;5.40;;;15.80;31.40;;;;;;5983873;24;20423;-67
2023/06/13 00:48:07;;;;;;;9.10;5.40;;;15.70;31.30;;;;;;5983565;24;20502;-67
2023/06/13 00:50:35;;;;;;;12.13;6.63;;;15.60;34.90;;;;;;5983529;24;20450;-68
2023/06/13 00:53:08;;;;;;;10.80;6.10;;;15.50;37.20;;;;;;5983189;24;20733;-67
2023/06/13 00:55:36;;;;;;;9.53;6.30;;;15.30;40.00;;;;;;5983837;24;20779;-67
2023/06/13 00:58:06;;;;;;;11.03;6.30;;;15.10;42.70;;;;;;5981989;24;20424;-67
2023/06/13 01:00:37;;;;;;;12.40;6.50;;;14.90;44.80;;;;;;5983433;24;20456;-67
2023/06/13 01:03:07;;;;;;;10.77;6.20;;;14.80;48.30;;;;;;5982986;24;20849;-67
2023/06/13 01:05:34;;;;;;;15.53;6.13;;;14.60;48.20;;;;;;5983540;24;20458;-67
2023/06/13 01:08:03;;;;;;;12.50;7.60;;;14.50;49.20;;;;;;5983461;24;20419;-67
2023/06/13 01:10:32;;;;;;;9.87;6.67;;;14.30;52.30;;;;;;5983442;24;20447;-67
2023/06/13 01:13:09;;;;;;;11.20;7.57;;;14.10;53.90;;;;;;5983381;24;20719;-67
2023/06/13 01:15:43;;;;;;;12.10;6.87;;;14.00;56.30;;;;;;5983766;24;20411;-67
2023/06/13 01:18:14;;;;;;;22.87;7.40;;;13.90;57.60;;;;;;5983301;24;20404;-67
2023/06/13 01:20:41;;;;;;;13.47;8.27;;;13.80;59.10;;;;;;5983246;24;20495;-67
2023/06/13 01:23:24;;;;;;;11.43;7.33;;;13.80;59.70;;;;;;5982496;24;20427;-67
2023/06/13 01:26:02;;;;;;;20.23;7.57;;;13.80;58.80;;;;;;5983289;24;20760;-67
2023/06/13 01:28:33;;;;;;;12.57;6.67;;;13.80;57.70;;;;;;5983188;24;20873;-67
2023/06/13 01:31:02;;;;;;;11.70;6.97;;;13.80;57.40;;;;;;5983178;24;20466;-67
2023/06/13 01:33:30;;;;;;;12.20;6.60;;;13.80;58.30;;;;;;5982564;24;20423;-68
2023/06/13 01:35:57;;;;;;;15.03;6.60;;;13.80;58.90;;;;;;5983360;24;20423;-67
2023/06/13 01:38:25;;;;;;;10.63;6.53;;;13.80;59.70;;;;;;5982894;24;20424;-67
2023/06/13 01:40:52;;;;;;;10.23;7.00;;;13.70;63.20;;;;;;5983464;24;20415;-67
2023/06/13 01:43:19;;;;;;;10.97;7.00;;;13.70;59.90;;;;;;5982694;24;20773;-67
2023/06/13 01:45:48;;;;;;;9.97;6.80;;;13.70;61.00;;;;;;5982937;24;20479;-67
2023/06/13 01:48:21;;;;;;;10.37;6.97;;;13.60;62.00;;;;;;5982987;24;20430;-67
2023/06/13 01:50:51;;;;;;;11.63;6.80;;;13.50;67.30;;;;;;5982790;24;20434;-67
2023/06/13 01:53:27;;;;;;;12.00;7.33;;;13.50;71.80;;;;;;5981026;24;20968;-67
2023/06/13 01:55:58;;;;;;;10.60;7.03;;;13.40;68.30;;;;;;5983507;24;20486;-67
2023/06/13 01:58:31;;;;;;;13.20;6.97;;;13.30;70.10;;;;;;5982861;24;20888;-67
2023/06/13 02:01:03;;;;;;;11.80;6.80;;;13.40;73.80;;;;;;5983481;24;20409;-67
2023/06/13 02:03:30;;;;;;;12.60;7.90;;;13.30;76.00;;;;;;5982691;24;20772;-67
2023/06/13 02:05:57;;;;;;;10.33;7.90;;;13.30;78.60;;;;;;5983020;24;20719;-67
2023/06/13 02:08:24;;;;;;;12.80;7.43;;;13.30;79.90;;;;;;5982975;24;20477;-67
2023/06/13 02:10:51;;;;;;;12.30;8.07;;;13.20;80.00;;;;;;5982743;24;20477;-67
2023/06/13 02:13:18;;;;;;;12.53;7.50;;;13.10;83.30;;;;;;5982481;24;20422;-68
2023/06/13 02:15:45;;;;;;;12.33;8.07;;;13.00;86.30;;;;;;5983140;24;20805;-67
2023/06/13 02:18:15;;;;;;;12.90;7.00;;;13.00;86.50;;;;;;5982706;24;20423;-67
2023/06/13 02:20:42;;;;;;;12.17;6.93;;;12.90;86.10;;;;;;5982652;24;20422;-67
2023/06/13 02:23:10;;;;;;;13.50;7.70;;;12.80;86.10;;;;;;5982375;24;20477;-67
2023/06/13 02:25:37;;;;;;;11.60;8.17;;;12.80;87.20;;;;;;5982623;24;20743;-67
2023/06/13 02:28:04;;;;;;;14.03;8.27;;;12.80;87.20;;;;;;5982802;24;20420;-67
2023/06/13 02:30:31;;;;;;;13.63;7.70;;;12.60;89.20;;;;;;5983115;24;20492;-68
2023/06/13 02:32:58;;;;;;;11.13;7.20;;;12.70;87.20;;;;;;5982499;24;20510;-67
2023/06/13 02:35:26;;;;;;;9.47;6.40;;;12.70;89.40;;;;;;5982518;24;20506;-68
2023/06/13 02:37:54;;;;;;;14.70;7.90;;;12.50;90.90;;;;;;5982587;24;20423;-67
2023/06/13 02:40:21;;;;;;;14.50;8.53;;;12.60;92.00;;;;;;5983028;24;20899;-67
2023/06/13 02:42:49;;;;;;;10.00;6.90;;;12.60;91.60;;;;;;5982086;24;20419;-67
2023/06/13 02:45:16;;;;;;;12.83;7.57;;;12.60;90.90;;;;;;5982550;24;20925;-67
2023/06/13 02:47:44;;;;;;;13.00;8.00;;;12.50;92.00;;;;;;5982350;24;20506;-67
2023/06/13 02:50:11;;;;;;;11.03;8.70;;;12.50;92.00;;;;;;5982378;24;20964;-67
2023/06/13 02:52:39;;;;;;;10.03;7.67;;;12.50;93.30;;;;;;5982416;24;20488;-67
2023/06/13 02:55:08;;;;;;;11.77;8.57;;;12.50;92.30;;;;;;5982849;24;20782;-67
2023/06/13 02:57:37;;;;;;;11.80;9.50;;;12.50;93.50;;;;;;5982290;24;20465;-67
2023/06/13 03:00:08;;;;;;;12.07;9.20;;;12.50;94.10;;;;;;5982440;24;20424;-67
2023/06/13 03:02:36;;;;;;;12.73;9.07;;;12.40;94.40;;;;;;5982602;24;20413;-68
2023/06/13 03:05:05;;;;;;;15.50;10.03;;;12.30;95.40;;;;;;5982667;24;20422;-68
2023/06/13 03:07:32;;;;;;;13.23;9.70;;;12.30;96.40;;;;;;5982526;24;20473;-68
2023/06/13 03:10:03;;;;;;;12.43;10.70;;;12.30;96.30;;;;;;5982821;24;20485;-68
2023/06/13 03:12:30;;;;;;;20.20;14.00;;;12.30;98.20;;;;;;5982860;24;20472;-68
2023/06/13 03:14:57;;;;;;;12.60;11.30;;;12.30;98.60;;;;;;5981849;24;20501;-68
2023/06/13 03:17:24;;;;;;;16.20;14.73;;;12.20;98.50;;;;;;5982722;24;20422;-67
2023/06/13 03:19:51;;;;;;;18.73;17.17;;;12.20;99.90;;;;;;5982316;24;20980;-67
2023/06/13 03:22:19;;;;;;;14.40;13.00;;;12.20;99.90;;;;;;5981961;24;20422;-68
2023/06/13 03:24:46;;;;;;;17.37;15.97;;;12.20;99.50;;;;;;5981529;24;20519;-67
2023/06/13 03:27:14;;;;;;;13.90;12.70;;;12.20;99.90;;;;;;5982357;24;20458;-67
2023/06/13 03:29:42;;;;;;;22.33;12.80;;;12.10;99.90;;;;;;5982222;24;20456;-68
2023/06/13 03:32:10;;;;;;;13.50;12.00;;;12.20;99.90;;;;;;5982697;24;20418;-67
2023/06/13 03:34:38;;;;;;;13.70;12.30;;;12.20;99.90;;;;;;5981813;24;20441;-67
2023/06/13 03:37:06;;;;;;;16.50;13.00;;;12.20;99.90;;;;;;5982466;24;20796;-67
2023/06/13 03:39:33;;;;;;;14.70;13.27;;;12.20;99.90;;;;;;5982280;24;20418;-67
2023/06/13 03:42:00;;;;;;;15.87;14.53;;;12.20;99.90;;;;;;5982073;24;20489;-68
2023/06/13 03:44:29;;;;;;;17.10;15.60;;;12.20;99.90;;;;;;5981639;24;20477;-68
2023/06/13 03:46:56;;;;;;;19.80;18.03;;;12.30;99.90;;;;;;5982920;24;20422;-68
2023/06/13 03:49:23;;;;;;;15.13;13.73;;;12.30;99.90;;;;;;5982429;24;20469;-66
2023/06/13 03:51:50;;;;;;;16.47;14.00;;;12.20;99.90;;;;;;5984009;24;20521;-66
2023/06/13 03:54:18;;;;;;;16.73;15.10;;;12.20;99.90;;;;;;5984023;24;20496;-66
2023/06/13 03:56:45;;;;;;;18.77;17.17;;;12.30;99.90;;;;;;5984303;24;20899;-66
2023/06/13 03:59:11;;;;;;;16.40;14.57;;;12.40;99.90;;;;;;5984021;24;20423;-66
2023/06/13 04:01:41;;;;;;;12.73;10.77;;;12.50;99.90;;;;;;5984203;24;20505;-66
2023/06/13 04:04:08;;;;;;;17.10;9.57;;;12.50;99.90;;;;;;5983237;24;20422;-66
2023/06/13 04:06:37;;;;;;;16.57;10.00;;;12.50;99.90;;;;;;5984139;24;20730;-66
2023/06/13 04:09:05;;;;;;;17.90;9.10;;;12.60;99.90;;;;;;5984137;24;20422;-66
2023/06/13 04:11:33;;;;;;;14.40;10.23;;;12.60;99.80;;;;;;5983971;24;20442;-66
2023/06/13 04:14:01;;;;;;;12.13;10.30;;;12.70;99.00;;;;;;5983327;24;20820;-66
2023/06/13 04:16:27;;;;;;;11.70;7.80;;;12.80;99.50;;;;;;5983865;24;20458;-66
2023/06/13 04:18:56;;;;;;;10.20;7.53;;;12.90;97.40;;;;;;5983370;24;20419;-66
2023/06/13 04:21:24;;;;;;;9.93;7.20;;;13.00;96.60;;;;;;5983992;24;20453;-64
2023/06/13 04:23:52;;;;;;;13.30;7.77;;;13.10;95.90;;;;;;5983191;24;20750;-64
2023/06/13 04:26:19;;;;;;;12.80;7.03;;;13.10;95.60;;;;;;5983208;24;20404;-65
2023/06/13 04:28:47;;;;;;;12.43;8.77;;;13.20;96.50;;;;;;5982930;24;20899;-64
2023/06/13 04:31:14;;;;;;;9.70;7.37;;;13.30;96.60;;;;;;5983177;24;20446;-64
2023/06/13 04:33:44;;;;;;;11.40;6.73;;;13.40;94.60;;;;;;5982865;24;20478;-64
2023/06/13 04:36:14;;;;;;;9.73;6.37;;;13.60;87.90;;;;;;5983918;24;20783;-64
2023/06/13 04:38:43;;;;;;;10.40;6.70;;;13.70;88.00;;;;;;5983678;24;20429;-64
2023/06/13 04:41:11;;;;;;;10.63;6.47;;;13.80;88.20;;;;;;5983408;24;20455;-64
2023/06/13 04:43:38;;;;;;;18.50;8.07;;;13.90;88.20;;;;;;5983109;24;20777;-64
2023/06/13 04:46:05;;;;;;;15.07;7.30;;;14.00;88.30;;;;;;5983764;24;20423;-64
2023/06/13 04:48:32;;;;;;;8.73;5.73;;;14.20;89.30;;;;;;5983286;24;20420;-64
2023/06/13 04:50:59;;;;;;;10.67;7.33;;;14.20;88.80;;;;;;5983605;24;20526;-64
2023/06/13 04:53:29;;;;;;;11.30;7.00;;;14.30;88.60;;;;;;5982065;24;20803;-67
2023/06/13 04:55:57;;;;;;;12.27;6.50;;;14.30;88.60;;;;;;5983919;24;20430;-67
2023/06/13 04:58:24;;;;;;;9.10;6.00;;;14.40;88.60;;;;;;5982858;24;20434;-68
2023/06/13 05:00:52;;;;;;;8.70;6.20;;;14.40;87.40;;;;;;5983721;24;20450;-67
2023/06/13 05:03:20;;;;;;;11.70;7.70;;;14.60;87.90;;;;;;5982544;24;20423;-67
2023/06/13 05:05:51;;;;;;;12.13;6.53;;;14.60;85.80;;;;;;5983555;24;20524;-67
2023/06/13 05:08:21;;;;;;;11.40;6.63;;;14.80;81.40;;;;;;5983274;24;20408;-67
2023/06/13 05:10:49;;;;;;;10.47;6.20;;;14.90;81.40;;;;;;5983413;24;20444;-67
2023/06/13 05:13:16;;;;;;;8.87;5.53;;;15.10;78.70;;;;;;5982991;24;20427;-67
2023/06/13 05:15:44;;;;;;;15.30;5.20;;;15.20;80.10;;;;;;5991854;24;20502;-67
2023/06/13 05:18:13;;;;;;;14.27;5.80;;;15.60;82.00;;;;;;5982091;24;20419;-67
2023/06/13 05:20:41;;;;;;;12.30;6.90;;;16.10;82.50;;;;;;5983117;24;20423;-68
2023/06/13 05:23:08;;;;;;;11.43;5.97;;;16.80;78.60;;;;;;5982469;24;20423;-68
2023/06/13 05:25:35;;;;;;;10.67;6.73;;;17.60;70.70;;;;;;5982310;24;20504;-68
2023/06/13 05:28:04;;;;;;;11.20;6.27;;;18.30;61.20;;;;;;5982412;24;20420;-68
2023/06/13 05:30:32;;;;;;;10.13;5.30;;;19.10;56.80;;;;;;5983117;24;20420;-67
2023/06/13 05:32:59;;;;;;;11.53;5.10;;;19.70;52.90;;;;;;5982113;24;20426;-68
2023/06/13 05:35:26;;;;;;;9.43;4.90;;;20.30;44.70;;;;;;5982961;24;20447;-67
2023/06/13 05:37:53;;;;;;;11.30;5.60;;;20.80;43.10;;;;;;5982441;24;20423;-67
2023/06/13 05:40:20;;;;;;;13.87;5.33;;;21.20;32.80;;;;;;5983114;24;20589;-67
2023/06/13 05:42:47;;;;;;;12.60;5.10;;;21.50;28.10;;;;;;5982482;24;20791;-68
2023/06/13 05:45:15;;;;;;;13.57;5.13;;;21.90;28.40;;;;;;5982915;24;20427;-67
2023/06/13 05:47:42;;;;;;;10.30;5.80;;;22.10;22.90;;;;;;5982584;24;20756;-67
2023/06/13 05:50:09;;;;;;;9.57;5.03;;;22.30;20.00;;;;;;5982824;24;20506;-67
2023/06/13 05:52:36;;;;;;;11.00;4.83;;;22.50;21.50;;;;;;5982318;24;20545;-67
2023/06/13 05:55:04;;;;;;;8.03;4.93;;;22.70;21.20;;;;;;5982411;24;20495;-67
2023/06/13 05:57:49;;;;;;;9.00;5.93;;;22.80;19.80;;;;;;5982167;24;20436;-68
2023/06/13 06:00:18;;;;;;;10.07;5.60;;;23.10;16.60;;;;;;5982313;24;20410;-67
2023/06/13 06:02:46;;;;;;;9.80;4.83;;;23.30;14.60;;;;;;5982466;24;20486;-67
2023/06/13 06:05:14;;;;;;;9.70;4.60;;;23.40;14.60;;;;;;5982339;24;20415;-68
2023/06/13 06:07:42;;;;;;;9.50;5.90;;;23.60;13.00;;;;;;5982176;24;20416;-67
2023/06/13 06:10:10;;;;;;;8.90;5.10;;;23.60;14.80;;;;;;5981999;24;20471;-67
2023/06/13 06:12:37;;;;;;;8.90;4.97;;;23.70;11.90;;;;;;5979851;24;20460;-67
2023/06/13 06:15:05;;;;;;;9.30;5.00;;;23.90;8.80;;;;;;5981112;24;20499;-67
2023/06/13 06:17:33;;;;;;;8.60;4.90;;;24.10;15.20;;;;;;5980867;24;20455;-67
2023/06/13 06:20:00;;;;;;;11.40;5.27;;;24.40;13.80;;;;;;5980301;24;21015;-68
2023/06/13 06:22:27;;;;;;;9.27;6.00;;;24.50;9.00;;;;;;5981298;24;20390;-67
2023/06/13 06:24:54;;;;;;;11.03;5.70;;;24.40;7.70;;;;;;5980613;24;20481;-67
2023/06/13 06:27:21;;;;;;;11.90;6.67;;;24.30;7.60;;;;;;5981463;24;20789;-67
2023/06/13 06:29:48;;;;;;;8.10;4.97;;;24.30;7.70;;;;;;5980728;24;20502;-67
2023/06/13 06:32:15;;;;;;;8.43;4.50;;;24.50;7.80;;;;;;5981387;24;20477;-67
2023/06/13 06:34:43;;;;;;;9.97;5.43;;;24.40;6.70;;;;;;5980321;24;20408;-67
2023/06/13 06:37:10;;;;;;;8.37;4.77;;;24.40;7.70;;;;;;5981141;24;20507;-67
2023/06/13 06:39:37;;;;;;;9.70;4.83;;;24.70;6.90;;;;;;5981046;24;20423;-67
2023/06/13 06:42:04;;;;;;;10.55;5.00;;;24.90;8.10;;;;;;5982162;24;20560;-67
2023/06/13 06:44:31;;;;;;;9.30;4.83;;;24.80;5.10;;;;;;5981628;24;20182;-67
2023/06/13 06:46:58;;;;;;;9.63;5.60;;;24.90;6.60;;;;;;5982488;24;20933;-68
2023/06/13 06:49:25;;;;;;;8.67;5.00;;;25.10;6.10;;;;;;5981919;24;20394;-67
2023/06/13 06:51:53;;;;;;;9.53;4.53;;;25.40;4.40;;;;;;5982344;24;20508;-67
2023/06/13 06:54:20;;;;;;;11.70;5.40;;;25.40;1.90;;;;;;5981835;24;20394;-67
2023/06/13 06:56:47;;;;;;;9.80;4.73;;;25.70;4.80;;;;;;5982299;24;20398;-68
2023/06/13 06:59:14;;;;;;;9.77;4.90;;;26.00;1.00;;;;;;5981892;24;20424;-67
2023/06/13 07:01:41;;;;;;;12.07;4.77;;;26.10;1.00;;;;;;5982610;24;20416;-67
2023/06/13 07:04:08;;;;;;;10.63;5.17;;;26.10;1.00;;;;;;5981978;24;20394;-68
2023/06/13 07:06:35;;;;;;;10.43;4.10;;;26.30;1.00;;;;;;5982025;24;20431;-67
2023/06/13 07:09:03;;;;;;;9.50;4.80;;;26.50;1.00;;;;;;5981886;24;20715;-63
2023/06/13 07:11:30;;;;;;;7.40;4.63;;;26.80;1.00;;;;;;5982322;24;20440;-62
2023/06/13 07:13:57;;;;;;;10.67;5.13;;;26.90;1.00;;;;;;5981468;24;20742;-62
2023/06/13 07:16:24;;;;;;;7.70;4.30;;;26.90;1.00;;;;;;5981905;24;20448;-62
2023/06/13 07:18:52;;;;;;;8.23;4.10;;;26.80;1.00;;;;;;5981778;24;20422;-61
2023/06/13 07:21:19;;;;;;;9.50;5.10;;;26.80;1.00;;;;;;5982876;24;20416;-62
2023/06/13 07:23:46;;;;;;;7.70;4.60;;;26.90;1.00;;;;;;5983404;24;20419;-62
2023/06/13 07:26:15;;;;;;;8.50;4.60;;;26.90;1.00;;;;;;5984276;24;20459;-62
2023/06/13 07:28:42;;;;;;;15.27;5.67;;;27.00;1.00;;;;;;5983874;24;20402;-62
2023/06/13 07:31:09;;;;;;;9.30;4.80;;;27.00;1.00;;;;;;5984056;24;20471;-62
2023/06/13 07:33:35;;;;;;;9.07;5.37;;;26.90;1.00;;;;;;5983588;24;20505;-62
2023/06/13 07:36:02;;;;;;;8.90;4.57;;;26.90;1.00;;;;;;5984103;24;20498;-62
2023/06/13 07:38:29;;;;;;;7.80;4.43;;;26.90;1.00;;;;;;5983815;24;20818;-63
2023/06/13 07:40:56;;;;;;;8.47;5.03;;;26.90;1.00;;;;;;5984078;24;20446;-62
2023/06/13 07:43:24;;;;;;;7.87;5.10;;;27.10;1.00;;;;;;5983756;24;20426;-62
2023/06/13 07:45:51;;;;;;;7.60;4.33;;;27.10;1.00;;;;;;5984024;24;20803;-62
2023/06/13 07:48:18;;;;;;;9.33;4.53;;;27.10;1.00;;;;;;5983830;24;20393;-62
2023/06/13 07:50:46;;;;;;;8.10;4.40;;;26.90;1.00;;;;;;5983926;24;20774;-62
2023/06/13 07:53:13;;;;;;;9.50;4.20;;;27.20;1.00;;;;;;5981800;24;20481;-62
2023/06/13 07:55:46;;;;;;;9.57;5.73;;;27.50;1.00;;;;;;5983504;24;20425;-62
2023/06/13 07:58:13;;;;;;;8.90;4.83;;;27.70;1.00;;;;;;5983696;24;20401;-62
2023/06/13 08:00:42;;;;;;;7.47;4.23;;;27.80;1.00;;;;;;5983554;24;20422;-62
2023/06/13 08:03:09;;;;;;;6.87;3.80;;;27.80;1.00;;;;;;5983351;24;20415;-62
2023/06/13 08:05:36;;;;;;;10.93;4.37;;;27.60;1.00;;;;;;5983533;24;20429;-62
2023/06/13 08:08:03;;;;;;;13.63;3.87;;;27.60;1.00;;;;;;5983382;24;20908;-62
2023/06/13 08:10:30;;;;;;;6.93;3.70;;;27.60;1.00;;;;;;5983894;24;20429;-62
2023/06/13 08:12:59;;;;;;;7.43;4.30;;;27.80;1.00;;;;;;5982850;24;20537;-62
2023/06/13 08:15:26;;;;;;;7.93;4.40;;;27.70;1.00;;;;;;5983853;24;20502;-62
2023/06/13 08:17:57;;;;;;;8.30;4.67;;;27.80;1.00;;;;;;5983469;24;20430;-62
2023/06/13 08:20:24;;;;;;;7.47;4.33;;;27.60;1.00;;;;;;5983514;24;20407;-62
2023/06/13 08:22:51;;;;;;;9.77;4.53;;;27.70;1.00;;;;;;5983253;24;20920;-62
2023/06/13 08:25:18;;;;;;;7.40;4.10;;;27.70;1.00;;;;;;5983215;24;20509;-62
2023/06/13 08:27:45;;;;;;;11.23;4.80;;;27.90;1.00;;;;;;5983452;24;20456;-62
2023/06/13 08:30:12;;;;;;;8.50;4.93;;;28.20;1.00;;;;;;5983320;24;20426;-62
2023/06/13 08:32:41;;;;;;;8.50;5.10;;;28.20;1.00;;;;;;5982663;24;20779;-63
2023/06/13 08:35:09;;;;;;;7.73;4.23;;;28.10;1.00;;;;;;5983275;24;20419;-62
2023/06/13 08:37:36;;;;;;;9.20;4.20;;;28.40;1.00;;;;;;5983546;24;20476;-62
2023/06/13 08:40:05;;;;;;;6.20;3.23;;;28.30;1.00;;;;;;5983449;24;20903;-62
2023/06/13 08:42:33;;;;;;;6.80;3.90;;;28.80;1.00;;;;;;5983146;24;20405;-63
2023/06/13 08:45:01;;;;;;;8.13;3.90;;;29.00;1.00;;;;;;5982819;24;20423;-63
2023/06/13 08:47:29;;;;;;;7.50;4.60;;;29.20;1.00;;;;;;5983306;24;20422;-63
2023/06/13 08:49:56;;;;;;;9.50;4.40;;;28.90;1.00;;;;;;5983475;24;20427;-63
2023/06/13 08:52:26;;;;;;;6.37;4.07;;;29.00;1.00;;;;;;5983450;24;20764;-63
2023/06/13 08:54:55;;;;;;;8.13;3.80;;;28.90;1.00;;;;;;5983000;24;20426;-62
2023/06/13 08:57:25;;;;;;;8.50;4.50;;;29.10;1.00;;;;;;5983285;24;20425;-63
2023/06/13 08:59:55;;;;;;;7.40;4.13;;;29.10;1.00;;;;;;5983443;24;20446;-63
2023/06/13 09:02:23;;;;;;;8.20;4.10;;;29.50;1.00;;;;;;5983324;24;20415;-63
2023/06/13 09:04:51;;;;;;;8.13;4.47;;;29.80;1.00;;;;;;5982806;24;20420;-62
2023/06/13 09:07:18;;;;;;;7.73;4.80;;;29.60;1.00;;;;;;5983066;24;20423;-64
2023/06/13 09:09:47;;;;;;;6.80;3.70;;;29.90;1.00;;;;;;5982783;24;20420;-64
2023/06/13 09:12:15;;;;;;;9.83;4.97;;;29.80;1.00;;;;;;5983191;24;20448;-64
2023/06/13 09:14:43;;;;;;;8.23;4.80;;;29.50;1.00;;;;;;5983205;24;20398;-64
2023/06/13 09:17:10;;;;;;;11.50;4.67;;;29.70;1.00;;;;;;5983145;24;20506;-64
2023/06/13 09:19:37;;;;;;;7.20;4.13;;;29.10;1.00;;;;;;5983233;24;20855;-64
2023/06/13 09:22:04;;;;;;;9.63;4.30;;;29.40;1.00;;;;;;5983307;24;20419;-63
2023/06/13 09:24:32;;;;;;;11.40;4.30;;;29.70;1.00;;;;;;5982592;24;20427;-63
2023/06/13 09:27:02;;;;;;;12.70;5.53;;;30.10;1.00;;;;;;5983166;24;20440;-64
2023/06/13 09:29:34;;;;;;;8.00;4.20;;;29.90;1.00;;;;;;5982974;24;20419;-63
2023/06/13 09:32:02;;;;;;;9.40;4.10;;;30.10;1.00;;;;;;5983613;24;20447;-63
2023/06/13 09:34:29;;;;;;;7.30;4.33;;;30.50;1.00;;;;;;5982688;24;20398;-63
2023/06/13 09:36:57;;;;;;;10.93;4.80;;;30.80;1.00;;;;;;5982524;24;20419;-63
2023/06/13 09:39:25;;;;;;;8.53;3.80;;;30.80;1.00;;;;;;5982829;24;20784;-64
2023/06/13 09:41:56;;;;;;;7.80;4.43;;;31.00;1.00;;;;;;5983238;24;20477;-63
2023/06/13 09:44:25;;;;;;;8.60;4.13;;;30.50;1.00;;;;;;5982454;24;20394;-64
2023/06/13 09:46:53;;;;;;;7.60;4.10;;;30.80;1.00;;;;;;5983526;24;20402;-64
2023/06/13 09:49:20;;;;;;;8.20;3.80;;;31.10;1.00;;;;;;5983108;24;20393;-63
2023/06/13 09:51:47;;;;;;;10.80;5.00;;;31.30;1.00;;;;;;5982762;24;20458;-63
2023/06/13 09:54:15;;;;;;;11.90;4.43;;;31.50;1.00;;;;;;5982655;24;20402;-63
2023/06/13 09:56:43;;;;;;;15.40;4.93;;;31.40;1.00;;;;;;5983180;24;20762;-63
2023/06/13 09:59:17;;;;;;;11.43;4.30;;;32.00;1.00;;;;;;5982720;24;20424;-63
2023/06/13 10:01:47;;;;;;;6.67;4.10;;;31.90;1.00;;;;;;5983577;24;20404;-63
2023/06/13 10:04:14;;;;;;;7.33;4.17;;;31.80;1.00;;;;;;5982209;24;20408;-63
2023/06/13 10:06:41;;;;;;;8.90;4.50;;;31.40;1.00;;;;;;5982840;24;20419;-63
2023/06/13 10:09:08;;;;;;;6.73;4.03;;;31.40;1.00;;;;;;5982596;24;20586;-63
2023/06/13 10:11:38;;;;;;;6.67;4.10;;;31.50;1.00;;;;;;5983224;24;20433;-64
2023/06/13 10:14:12;;;;;;;8.63;4.57;;;31.60;1.00;;;;;;5982205;24;20449;-63
2023/06/13 10:16:44;;;;;;;8.23;4.50;;;31.80;1.00;;;;;;5982863;24;20414;-62
2023/06/13 10:19:19;;;;;;;10.20;4.20;;;32.70;1.00;;;;;;5982427;24;20385;-63
2023/06/13 10:21:47;;;;;;;8.33;4.40;;;33.00;1.00;;;;;;5983015;24;20425;-62
2023/06/13 10:24:16;;;;;;;6.83;4.03;;;32.70;1.00;;;;;;5981838;24;20454;-62
2023/06/13 10:26:45;;;;;;;8.50;5.10;;;32.20;1.00;;;;;;5982738;24;20747;-62
2023/06/13 10:29:37;;;;;;;12.40;4.40;;;31.90;1.00;;;;;;5982410;24;20473;-61
2023/06/13 10:32:16;;;;;;;7.23;3.70;;;32.20;1.00;;;;;;5982981;24;20378;-63
2023/06/13 10:35:09;;;;;;;10.43;4.70;;;31.40;1.00;;;;;;5982114;24;20384;-62
2023/06/13 10:37:53;;;;;;;7.97;4.33;;;32.00;1.00;;;;;;5982916;24;20438;-62
2023/06/13 10:40:50;;;;;;;9.33;4.10;;;32.50;1.00;;;;;;5982779;24;20728;-62
2023/06/13 10:43:25;;;;;;;7.60;4.50;;;33.10;1.00;;;;;;5981940;24;20434;-62
2023/06/13 10:45:53;;;;;;;7.47;4.37;;;33.10;1.00;;;;;;5982766;24;20382;-63
2023/06/13 10:48:32;;;;;;;8.40;4.27;;;31.70;1.00;;;;;;5982503;24;20423;-62
2023/06/13 10:51:00;;;;;;;6.73;4.37;;;32.80;1.00;;;;;;5983002;24;20386;-62
2023/06/13 10:53:28;;;;;;;6.87;3.97;;;32.80;1.00;;;;;;5982106;24;20394;-62
2023/06/13 10:56:00;;;;;;;7.50;4.03;;;33.10;1.00;;;;;;5982568;24;20394;-62
2023/06/13 10:58:29;;;;;;;7.57;4.27;;;33.30;1.00;;;;;;5982324;24;20415;-62
2023/06/13 11:00:56;;;;;;;7.40;4.33;;;33.40;1.00;;;;;;5982845;24;20474;-62
2023/06/13 11:03:30;;;;;;;10.73;4.87;;;32.70;1.00;;;;;;5982166;24;20439;-62
2023/06/13 11:05:57;;;;;;;10.00;4.50;;;31.80;1.00;;;;;;5982710;24;20404;-62
2023/06/13 11:08:25;;;;;;;8.00;4.07;;;31.70;1.00;;;;;;5982367;24;20718;-62
2023/06/13 11:10:54;;;;;;;7.00;3.43;;;31.40;1.00;;;;;;5983097;24;20528;-62
2023/06/13 11:13:22;;;;;;;8.60;3.97;;;31.90;1.00;;;;;;5981649;24;20391;-62
2023/06/13 11:15:50;;;;;;;8.00;4.80;;;32.00;1.00;;;;;;5978964;24;20398;-63
2023/06/13 11:18:34;;;;;;;6.30;3.77;;;31.50;1.00;;;;;;5980932;24;20398;-62
2023/06/13 11:21:03;;;;;;;8.57;4.60;;;32.50;1.00;;;;;;5980863;24;20726;-62
2023/06/13 11:23:48;;;;;;;7.03;3.97;;;33.10;1.00;;;;;;5980581;24;20921;-62
2023/06/13 11:26:19;;;;;;;8.60;4.40;;;33.90;1.00;;;;;;5981606;24;20777;-61
2023/06/13 11:28:47;;;;;;;6.60;4.40;;;34.70;1.00;;;;;;5981208;24;20417;-62
2023/06/13 11:31:15;;;;;;;9.20;4.40;;;34.50;1.00;;;;;;5981983;24;20420;-62
2023/06/13 11:33:45;;;;;;;8.03;4.90;;;34.90;1.00;;;;;;5981084;24;20386;-62
2023/06/13 11:36:13;;;;;;;7.80;4.63;;;34.40;1.00;;;;;;5982587;24;20488;-62
2023/06/13 11:38:46;;;;;;;7.87;4.00;;;34.00;1.00;;;;;;5980258;24;20390;-62
2023/06/13 11:41:13;;;;;;;10.30;4.83;;;33.70;1.00;;;;;;5981511;24;20406;-62
2023/06/13 11:43:40;;;;;;;7.30;4.30;;;32.80;1.00;;;;;;5980514;24;20460;-62
2023/06/13 11:46:07;;;;;;;8.60;4.17;;;33.60;1.00;;;;;;5981154;24;20430;-69
2023/06/13 11:48:33;;;;;;;6.63;4.20;;;33.80;1.00;;;;;;5980836;24;20398;-69
2023/06/13 11:51:11;;;;;;;12.00;4.60;;;34.00;1.00;;;;;;5981087;24;20753;-69
2023/06/13 11:53:50;;;;;;;6.83;4.30;;;34.70;1.00;;;;;;5980398;24;20455;-69
2023/06/13 11:56:18;;;;;;;7.00;4.47;;;33.70;1.00;;;;;;5981107;24;20403;-69
2023/06/13 11:58:46;;;;;;;7.53;4.10;;;34.50;1.00;;;;;;5980605;24;20419;-68
2023/06/13 12:01:15;;;;;;;8.30;4.50;;;35.30;1.00;;;;;;5981057;24;20427;-68
2023/06/13 12:03:44;;;;;;;8.47;4.97;;;36.20;1.00;;;;;;5980679;24;20419;-69
2023/06/13 12:06:11;;;;;;;15.83;4.80;;;35.10;1.00;;;;;;5980847;24;20400;-68
2023/06/13 12:08:40;;;;;;;10.53;4.53;;;35.80;1.00;;;;;;5981919;24;20805;-68
2023/06/13 12:11:11;;;;;;;7.10;4.23;;;36.50;1.00;;;;;;5982476;24;20450;-69
2023/06/13 12:13:38;;;;;;;5.83;3.43;;;35.60;1.00;;;;;;5980982;24;20495;-68
2023/06/13 12:16:05;;;;;;;7.60;4.80;;;34.50;1.00;;;;;;5982797;24;20978;-67
2023/06/13 12:18:32;;;;;;;7.63;4.10;;;34.80;1.00;;;;;;5983718;24;20393;-67
2023/06/13 12:20:59;;;;;;;8.70;4.20;;;34.40;1.00;;;;;;5985109;24;20580;-66
2023/06/13 12:23:27;;;;;;;8.17;5.30;;;35.70;1.00;;;;;;5984952;24;20471;-67
2023/06/13 12:25:58;;;;;;;7.10;4.63;;;36.70;1.00;;;;;;5984186;24;20463;-67
2023/06/13 12:28:28;;;;;;;7.93;4.83;;;35.20;1.00;;;;;;5984070;24;20442;-67
2023/06/13 12:30:57;;;;;;;7.00;4.67;;;34.20;1.00;;;;;;5983916;24;20401;-68
2023/06/13 12:33:34;;;;;;;7.80;4.37;;;34.50;1.00;;;;;;5983099;24;20931;-67
2023/06/13 12:36:01;;;;;;;7.87;5.00;;;35.50;1.00;;;;;;5983807;24;20470;-67
2023/06/13 12:38:29;;;;;;;7.90;4.03;;;35.60;1.00;;;;;;5984123;24;20431;-67
2023/06/13 12:40:57;;;;;;;6.23;3.70;;;35.40;1.00;;;;;;5983778;24;20876;-67
2023/06/13 12:43:25;;;;;;;7.27;4.63;;;36.00;1.00;;;;;;5983446;24;20424;-67
2023/06/13 12:45:56;;;;;;;9.73;5.00;;;34.70;1.00;;;;;;5984211;24;20399;-68
2023/06/13 12:48:23;;;;;;;9.03;4.30;;;34.70;1.00;;;;;;5983445;24;20385;-68
2023/06/13 12:50:50;;;;;;;7.27;4.37;;;34.20;1.00;;;;;;5984052;24;20480;-67
2023/06/13 12:53:20;;;;;;;6.77;4.10;;;34.40;1.00;;;;;;5983186;24;20785;-67